createdAt,value
2018-08-22T00:00:35.068Z,3.03
2018-08-22T00:03:05.574Z,3.70
2018-08-22T00:05:36.000Z,3.90
2018-08-22T00:08:06.703Z,3.37
2018-08-22T00:10:37.355Z,3.20
2018-08-22T00:13:08.158Z,3.23
2018-08-22T00:15:38.630Z,3.47
2018-08-22T00:18:09.078Z,3.17
2018-08-22T00:20:39.527Z,3.53
2018-08-22T00:23:09.959Z,3.40
2018-08-22T00:25:40.636Z,3.40
2018-08-22T00:28:11.140Z,3.60
2018-08-22T00:30:41.875Z,3.50
2018-08-22T00:33:12.329Z,3.00
2018-08-22T00:35:42.751Z,3.37
2018-08-22T00:38:13.200Z,3.63
2018-08-22T00:40:43.652Z,3.97
2018-08-22T00:43:14.075Z,3.20
2018-08-22T00:45:44.553Z,3.53
2018-08-22T00:48:15.056Z,3.70
2018-08-22T00:50:45.482Z,3.53
2018-08-22T00:53:15.914Z,3.20
2018-08-22T00:55:46.338Z,3.50
2018-08-22T00:58:16.884Z,3.93
2018-08-22T01:00:47.375Z,3.20
2018-08-22T01:03:17.872Z,3.33
2018-08-22T01:05:48.325Z,3.90
2018-08-22T01:08:18.810Z,3.57
2018-08-22T01:10:49.303Z,3.70
2018-08-22T01:13:20.067Z,3.60
2018-08-22T01:15:50.557Z,3.40
2018-08-22T01:18:21.041Z,3.40
2018-08-22T01:20:52.103Z,3.90
2018-08-22T01:23:22.917Z,3.60
2018-08-22T01:25:53.402Z,3.70
2018-08-22T01:28:23.877Z,3.90
2018-08-22T01:30:54.380Z,3.97
2018-08-22T01:33:24.956Z,4.10
2018-08-22T01:35:55.511Z,3.93
2018-08-22T01:38:26.011Z,3.87
2018-08-22T01:40:56.717Z,3.80
2018-08-22T01:43:27.454Z,4.53
2018-08-22T01:45:57.928Z,4.20
2018-08-22T01:48:28.439Z,3.77
2018-08-22T01:50:59.183Z,3.43
2018-08-22T01:53:29.988Z,3.77
2018-08-22T01:56:00.685Z,3.60
2018-08-22T01:58:31.163Z,3.50
2018-08-22T02:01:01.655Z,4.07
2018-08-22T02:03:32.119Z,3.60
2018-08-22T02:06:02.593Z,4.33
2018-08-22T02:08:33.076Z,3.87
2018-08-22T02:11:03.753Z,3.73
2018-08-22T02:13:34.488Z,3.50
2018-08-22T02:16:05.222Z,3.83
2018-08-22T02:18:35.716Z,3.80
2018-08-22T02:21:06.712Z,4.17
2018-08-22T02:23:37.218Z,3.73
2018-08-22T02:26:07.653Z,3.93
2018-08-22T02:28:38.144Z,4.00
2018-08-22T02:31:08.848Z,3.93
2018-08-22T02:33:39.333Z,3.80
2018-08-22T02:36:10.003Z,3.67
2018-08-22T02:38:40.715Z,4.10
2018-08-22T02:41:11.203Z,3.80
2018-08-22T02:43:41.735Z,3.70
2018-08-22T02:46:12.212Z,3.90
2018-08-22T02:48:47.829Z,4.37
2018-08-22T02:51:18.314Z,3.73
2018-08-22T02:53:49.102Z,3.30
2018-08-22T02:56:19.832Z,4.03
2018-08-22T02:58:50.526Z,3.93
2018-08-22T03:01:21.291Z,4.10
2018-08-22T03:03:51.783Z,4.07
2018-08-22T03:06:22.327Z,3.83
2018-08-22T03:08:52.824Z,4.13
2018-08-22T03:11:23.279Z,3.70
2018-08-22T03:13:54.011Z,3.93
2018-08-22T03:16:24.503Z,3.90
2018-08-22T03:18:55.439Z,3.97
2018-08-22T03:21:25.942Z,4.23
2018-08-22T03:23:56.608Z,4.40
2018-08-22T03:26:30.585Z,3.67
2018-08-22T03:29:01.101Z,3.60
2018-08-22T03:31:31.567Z,4.03
2018-08-22T03:34:02.140Z,4.07
2018-08-22T03:36:32.681Z,4.23
2018-08-22T03:39:03.277Z,4.23
2018-08-22T03:41:34.119Z,4.27
2018-08-22T03:44:04.661Z,3.90
2018-08-22T03:46:35.196Z,4.50
2018-08-22T03:49:05.726Z,3.97
2018-08-22T03:51:36.229Z,4.40
2018-08-22T03:54:06.750Z,3.90
2018-08-22T03:56:37.399Z,4.37
2018-08-22T03:59:08.143Z,3.83
2018-08-22T04:01:38.583Z,3.63
2018-08-22T04:04:09.027Z,3.90
2018-08-22T04:06:39.736Z,4.27
2018-08-22T04:09:16.813Z,4.07
2018-08-22T04:11:47.538Z,4.30
2018-08-22T04:14:18.417Z,4.07
2018-08-22T04:16:48.877Z,4.20
2018-08-22T04:19:19.370Z,4.13
2018-08-22T04:21:50.019Z,3.87
2018-08-22T04:24:20.712Z,4.20
2018-08-22T04:26:51.621Z,4.03
2018-08-22T04:29:22.312Z,4.27
2018-08-22T04:31:52.786Z,4.30
2018-08-22T04:34:23.586Z,4.20
2018-08-22T04:36:54.236Z,4.07
2018-08-22T04:39:24.711Z,4.13
2018-08-22T04:41:55.171Z,4.27
2018-08-22T04:44:25.746Z,4.47
2018-08-22T04:46:56.185Z,4.43
2018-08-22T04:49:26.712Z,3.67
2018-08-22T04:51:57.400Z,4.17
2018-08-22T04:54:28.176Z,4.10
2018-08-22T04:56:58.933Z,4.70
2018-08-22T04:59:29.700Z,4.43
2018-08-22T05:02:00.472Z,4.23
2018-08-22T05:04:30.940Z,3.83
2018-08-22T05:07:01.470Z,4.70
2018-08-22T05:09:32.293Z,4.57
2018-08-22T05:12:02.823Z,4.60
2018-08-22T05:14:33.611Z,4.57
2018-08-22T05:17:04.112Z,4.53
2018-08-22T05:19:34.716Z,4.20
2018-08-22T05:22:05.227Z,4.70
2018-08-22T05:24:35.756Z,4.50
2018-08-22T05:27:06.573Z,4.63
2018-08-22T05:29:45.999Z,4.70
2018-08-22T05:32:16.853Z,4.10
2018-08-22T05:34:47.503Z,4.37
2018-08-22T05:37:18.189Z,5.37
2018-08-22T05:39:49.682Z,4.60
2018-08-22T05:42:20.523Z,4.67
2018-08-22T05:44:51.464Z,4.80
2018-08-22T05:47:21.987Z,4.50
2018-08-22T05:59:25.513Z,5.13
2018-08-22T06:01:55.892Z,4.70
2018-08-22T06:04:26.500Z,5.03
2018-08-22T06:06:56.856Z,4.50
2018-08-22T06:09:27.218Z,4.87
2018-08-22T06:11:57.608Z,4.77
2018-08-22T06:14:27.951Z,4.10
2018-08-22T06:17:04.953Z,5.10
2018-08-22T06:19:35.329Z,4.37
2018-08-22T06:22:05.737Z,4.43
2018-08-22T06:24:36.102Z,4.27
2018-08-22T06:27:06.488Z,4.23
2018-08-22T06:29:36.869Z,4.53
2018-08-22T06:32:07.253Z,4.47
2018-08-22T06:34:38.096Z,4.37
2018-08-22T06:37:08.473Z,4.23
2018-08-22T06:39:38.812Z,3.90
2018-08-22T06:42:15.788Z,4.50
2018-08-22T06:44:46.398Z,4.50
2018-08-22T06:47:16.806Z,4.20
2018-08-22T06:49:47.145Z,3.87
2018-08-22T06:52:17.622Z,4.63
2018-08-22T06:54:48.259Z,3.67
2018-08-22T06:57:21.629Z,4.20
2018-08-22T06:59:51.996Z,4.30
2018-08-22T07:02:22.374Z,4.50
2018-08-22T07:04:53.233Z,4.03
2018-08-22T07:07:23.572Z,4.63
2018-08-22T07:09:53.941Z,4.30
2018-08-22T07:12:24.313Z,4.20
2018-08-22T07:14:54.648Z,4.20
2018-08-22T07:17:25.249Z,4.07
2018-08-22T07:19:55.635Z,4.07
2018-08-22T07:22:26.022Z,4.00
2018-08-22T07:24:56.605Z,3.87
2018-08-22T07:27:26.971Z,4.00
2018-08-22T07:29:57.617Z,4.10
2018-08-22T07:32:28.129Z,3.57
2018-08-22T07:34:58.465Z,4.00
2018-08-22T07:37:28.847Z,3.67
2018-08-22T07:39:59.178Z,4.50
2018-08-22T07:42:29.790Z,4.10
2018-08-22T07:45:00.373Z,3.83
2018-08-22T07:47:30.750Z,3.70
2018-08-22T07:50:01.643Z,3.40
2018-08-22T07:52:32.548Z,4.10
2018-08-22T07:55:03.696Z,3.83
2018-08-22T07:57:34.058Z,4.10
2018-08-22T08:00:05.122Z,3.90
2018-08-22T08:02:36.232Z,3.47
2018-08-22T08:05:07.482Z,3.83
2018-08-22T08:07:38.408Z,3.98
2018-08-22T08:10:12.201Z,3.77
2018-08-22T08:12:43.106Z,4.10
2018-08-22T08:15:15.217Z,4.22
2018-08-22T08:17:46.214Z,4.12
2018-08-22T08:20:17.106Z,3.60
2018-08-22T08:22:48.285Z,3.87
2018-08-22T08:25:19.206Z,3.95
2018-08-22T08:27:50.396Z,4.50
2018-08-22T08:30:21.552Z,4.40
2018-08-22T08:32:51.942Z,4.30
2018-08-22T08:35:22.287Z,3.80
2018-08-22T08:37:52.692Z,4.00
2018-08-22T08:40:23.285Z,4.50
2018-08-22T08:42:54.199Z,4.50
2018-08-22T08:45:25.109Z,4.10
2018-08-22T08:47:55.484Z,4.40
2018-08-22T08:50:25.949Z,4.30
2018-08-22T08:52:56.480Z,4.42
2018-08-22T08:55:27.036Z,4.50
2018-08-22T08:57:57.737Z,4.13
2018-08-22T09:00:28.127Z,4.10
2018-08-22T09:02:59.262Z,4.62
2018-08-22T09:05:30.233Z,4.85
2018-08-22T09:08:01.167Z,4.40
2018-08-22T09:10:32.140Z,4.65
2018-08-22T09:13:03.041Z,4.62
2018-08-22T09:15:33.950Z,4.62
2018-08-22T09:18:05.084Z,4.45
2018-08-22T09:20:36.094Z,4.20
2018-08-22T09:23:07.291Z,4.30
2018-08-22T09:25:38.452Z,4.87
2018-08-22T09:28:09.659Z,4.33
2018-08-22T09:30:40.998Z,4.10
2018-08-22T09:33:12.165Z,4.28
2018-08-22T09:35:43.301Z,4.17
2018-08-22T09:38:14.463Z,4.10
2018-08-22T09:40:45.354Z,4.55
2018-08-22T09:43:16.579Z,4.78
2018-08-22T09:45:47.660Z,4.50
2018-08-22T09:48:18.594Z,4.17
2018-08-22T09:50:49.565Z,4.10
2018-08-22T09:53:20.649Z,4.03
2018-08-22T09:55:51.541Z,3.95
2018-08-22T09:58:22.721Z,3.80
2018-08-22T10:00:58.711Z,3.58
2018-08-22T10:03:44.334Z,3.42
2018-08-22T10:06:30.524Z,4.08
2018-08-22T10:09:02.819Z,3.90
2018-08-22T10:11:33.717Z,3.52
2018-08-22T10:14:04.658Z,3.90
2018-08-22T10:16:35.592Z,3.80
2018-08-22T10:19:06.572Z,3.70
2018-08-22T10:21:37.668Z,3.92
2018-08-22T10:25:11.904Z,3.90
2018-08-22T10:27:42.796Z,3.42
2018-08-22T10:30:13.708Z,3.58
2018-08-22T10:32:44.914Z,3.65
2018-08-22T10:35:15.960Z,3.42
2018-08-22T10:37:47.110Z,3.33
2018-08-22T10:40:18.033Z,3.67
2018-08-22T10:42:49.181Z,3.20
2018-08-22T10:45:20.112Z,3.58
2018-08-22T10:47:51.013Z,3.65
2018-08-22T10:50:21.932Z,3.42
2018-08-22T10:52:53.057Z,3.30
2018-08-22T10:55:23.997Z,3.52
2018-08-22T10:57:54.916Z,4.03
2018-08-22T11:00:25.818Z,3.42
2018-08-22T11:02:56.670Z,3.35
2018-08-22T11:05:27.641Z,3.40
2018-08-22T11:07:58.497Z,3.35
2018-08-22T11:10:29.677Z,3.55
2018-08-22T11:13:00.532Z,3.60
2018-08-22T11:15:31.675Z,3.47
2018-08-22T11:18:02.796Z,3.50
2018-08-22T11:20:33.830Z,3.12
2018-08-22T11:23:21.621Z,3.58
2018-08-22T11:26:10.091Z,3.10
2018-08-22T11:28:57.876Z,3.40
2018-08-22T11:31:45.561Z,3.35
2018-08-22T11:34:33.379Z,3.40
2018-08-22T11:37:12.593Z,3.17
2018-08-22T11:39:46.292Z,3.27
2018-08-22T11:42:17.301Z,3.12
2018-08-22T11:44:48.428Z,3.42
2018-08-22T11:47:19.274Z,3.00
2018-08-22T11:49:50.816Z,3.52
2018-08-22T11:52:21.693Z,3.15
2018-08-22T11:54:52.593Z,3.22
2018-08-22T11:57:23.460Z,3.40
2018-08-22T11:59:55.069Z,3.37
2018-08-22T12:02:26.369Z,3.37
2018-08-22T12:04:57.562Z,3.77
2018-08-22T12:07:28.419Z,3.37
2018-08-22T12:09:59.312Z,3.35
2018-08-22T12:12:30.417Z,3.70
2018-08-22T12:15:01.540Z,3.45
2018-08-22T12:17:32.646Z,2.98
2018-08-22T12:20:03.595Z,3.10
2018-08-22T12:22:34.696Z,3.30
2018-08-22T12:25:05.817Z,3.08
2018-08-22T12:27:36.717Z,3.55
2018-08-22T12:30:07.598Z,3.50
2018-08-22T12:32:38.481Z,3.65
2018-08-22T12:35:09.610Z,3.40
2018-08-22T12:37:40.477Z,3.65
2018-08-22T12:40:11.546Z,3.52
2018-08-22T12:42:42.392Z,3.20
2018-08-22T12:45:13.285Z,3.50
2018-08-22T12:47:44.157Z,3.35
2018-08-22T12:50:15.060Z,3.70
2018-08-22T12:52:46.091Z,3.67
2018-08-22T12:55:16.956Z,3.42
2018-08-22T12:57:47.804Z,3.45
2018-08-22T13:00:18.717Z,3.27
2018-08-22T13:02:49.568Z,3.47
2018-08-22T13:05:20.442Z,3.60
2018-08-22T13:07:51.299Z,3.20
2018-08-22T13:10:22.189Z,3.65
2018-08-22T13:12:53.053Z,3.17
2018-08-22T13:15:23.913Z,3.20
2018-08-22T13:17:54.776Z,3.58
2018-08-22T13:20:25.648Z,3.30
2018-08-22T13:22:56.629Z,3.22
2018-08-22T13:25:27.480Z,2.87
2018-08-22T13:27:58.491Z,3.10
2018-08-22T13:30:29.567Z,2.80
2018-08-22T13:33:00.665Z,2.70
2018-08-22T13:35:31.533Z,2.98
2018-08-22T13:38:02.385Z,2.67
2018-08-22T13:40:33.273Z,2.70
2018-08-22T13:43:04.324Z,3.22
2018-08-22T13:45:35.392Z,3.10
2018-08-22T13:48:06.260Z,3.25
2018-08-22T13:50:37.168Z,2.45
2018-08-22T13:53:08.276Z,2.72
2018-08-22T13:55:39.177Z,2.77
2018-08-22T13:58:10.036Z,2.80
2018-08-22T14:00:41.192Z,2.30
2018-08-22T14:03:12.302Z,2.80
2018-08-22T14:05:43.192Z,2.83
2018-08-22T14:08:14.053Z,2.80
2018-08-22T14:10:44.934Z,2.83
2018-08-22T14:13:16.044Z,2.72
2018-08-22T14:15:46.997Z,2.60
2018-08-22T14:18:17.857Z,2.65
2018-08-22T14:20:48.740Z,2.45
2018-08-22T14:23:19.604Z,1.90
2018-08-22T14:25:50.481Z,1.75
2018-08-22T14:28:27.601Z,1.80
2018-08-22T14:30:58.749Z,2.15
2018-08-22T14:33:29.649Z,2.08
2018-08-22T14:36:00.710Z,1.85
2018-08-22T14:38:31.557Z,2.12
2018-08-22T14:41:02.708Z,2.00
2018-08-22T14:43:33.565Z,2.08
2018-08-22T14:46:04.445Z,2.45
2018-08-22T14:48:35.458Z,2.30
2018-08-22T14:51:06.611Z,2.60
2018-08-22T14:53:37.461Z,2.60
2018-08-22T14:56:19.437Z,2.80
2018-08-22T14:58:50.601Z,2.35
2018-08-22T15:01:21.544Z,2.15
2018-08-22T15:03:52.401Z,2.22
2018-08-22T15:06:23.281Z,2.37
2018-08-22T15:10:19.282Z,2.25
2018-08-22T15:12:50.474Z,2.50
2018-08-22T15:15:21.473Z,2.52
2018-08-22T15:17:52.349Z,2.40
2018-08-22T15:20:23.220Z,2.33
2018-08-22T15:22:54.105Z,2.58
2018-08-22T15:25:24.967Z,2.37
2018-08-22T15:27:55.851Z,2.22
2018-08-22T15:30:26.958Z,2.37
2018-08-22T15:32:58.096Z,2.65
2018-08-22T15:35:28.961Z,2.65
2018-08-22T15:37:59.836Z,2.40
2018-08-22T15:40:30.680Z,2.58
2018-08-22T15:43:01.756Z,2.50
2018-08-22T15:45:32.613Z,2.42
2018-08-22T15:48:03.540Z,2.50
2018-08-22T15:50:34.648Z,2.60
2018-08-22T15:53:05.686Z,2.80
2018-08-22T15:55:36.537Z,2.75
2018-08-22T15:58:07.396Z,2.70
2018-08-22T16:00:51.601Z,2.55
2018-08-22T16:03:23.504Z,2.50
2018-08-22T16:05:55.512Z,2.95
2018-08-22T16:08:27.633Z,2.77
2018-08-22T16:10:58.545Z,2.80
2018-08-22T16:13:30.845Z,2.40
2018-08-22T16:16:03.625Z,2.55
2018-08-22T16:18:35.036Z,2.87
2018-08-22T16:21:08.057Z,2.75
2018-08-22T16:23:38.945Z,2.35
2018-08-22T16:26:10.041Z,2.80
2018-08-22T16:28:53.515Z,2.80
2018-08-22T16:31:29.549Z,2.67
2018-08-22T16:34:01.498Z,2.60
2018-08-22T16:36:32.380Z,2.47
2018-08-22T16:39:03.388Z,2.55
2018-08-22T16:41:34.486Z,2.65
2018-08-22T16:44:05.361Z,2.92
2018-08-22T16:46:36.240Z,2.47
2018-08-22T16:49:07.138Z,2.60
2018-08-22T16:51:38.261Z,3.15
2018-08-22T16:54:09.605Z,2.67
2018-08-22T16:56:40.820Z,2.72
2018-08-22T16:59:13.240Z,3.00
2018-08-22T17:01:49.072Z,2.83
2018-08-22T17:04:20.202Z,2.70
2018-08-22T17:06:51.341Z,3.00
2018-08-22T17:09:22.228Z,2.80
2018-08-22T17:11:53.104Z,2.80
2018-08-22T17:14:24.257Z,2.75
2018-08-22T17:16:55.156Z,2.58
2018-08-22T17:19:26.071Z,2.72
2018-08-22T17:21:56.957Z,2.58
2018-08-22T17:24:27.885Z,2.87
2018-08-22T17:26:58.764Z,2.83
2018-08-22T17:29:30.008Z,2.62
2018-08-22T17:32:04.351Z,2.95
2018-08-22T17:34:35.334Z,2.33
2018-08-22T17:37:09.097Z,2.50
2018-08-22T17:39:40.511Z,2.33
2018-08-22T17:42:11.378Z,2.70
2018-08-22T17:44:42.292Z,2.00
2018-08-22T17:47:13.191Z,2.42
2018-08-22T17:49:55.396Z,2.08
2018-08-22T17:52:33.105Z,10.30
2018-08-22T17:55:04.025Z,9.48
2018-08-22T17:57:35.168Z,3.20
2018-08-22T18:00:27.235Z,3.12
2018-08-22T18:02:58.156Z,2.98
2018-08-22T18:05:30.190Z,3.23
2018-08-22T18:08:05.257Z,3.57
2018-08-22T18:10:40.620Z,3.00
2018-08-22T18:13:15.558Z,3.47
2018-08-22T18:15:46.647Z,3.87
2018-08-22T18:18:19.644Z,4.30
2018-08-22T18:20:50.741Z,3.57
2018-08-22T18:23:21.090Z,4.03
2018-08-22T18:25:55.561Z,3.40
2018-08-22T18:28:25.921Z,4.07
2018-08-22T18:30:56.349Z,4.20
2018-08-22T18:33:26.692Z,3.40
2018-08-22T18:35:57.073Z,3.37
2018-08-22T18:38:27.869Z,3.43
2018-08-22T18:41:07.781Z,3.73
2018-08-22T18:43:38.449Z,4.00
2018-08-22T18:46:09.345Z,3.50
2018-08-22T18:48:40.240Z,3.53
2018-08-22T18:51:10.858Z,3.60
2018-08-22T18:53:41.549Z,3.60
2018-08-22T18:56:16.032Z,3.67
2018-08-22T18:58:46.405Z,3.43
2018-08-22T19:01:16.756Z,3.50
2018-08-22T19:03:47.394Z,3.80
2018-08-22T19:06:17.748Z,3.40
2018-08-22T19:08:48.050Z,3.40
2018-08-22T19:11:19.394Z,3.30
2018-08-22T19:13:49.940Z,3.50
2018-08-22T19:16:20.272Z,3.43
2018-08-22T19:18:50.673Z,3.67
2018-08-22T19:21:21.004Z,3.30
2018-08-22T19:23:56.764Z,3.43
2018-08-22T19:26:27.329Z,3.43
2018-08-22T19:29:04.861Z,3.30
2018-08-22T19:31:36.731Z,3.37
2018-08-22T19:34:07.049Z,3.60
2018-08-22T19:36:37.386Z,3.60
2018-08-22T19:39:07.929Z,3.60
2018-08-22T19:41:38.260Z,3.87
2018-08-22T19:44:08.813Z,3.07
2018-08-22T19:46:39.165Z,3.47
2018-08-22T19:49:09.585Z,3.23
2018-08-22T19:51:40.121Z,3.43
2018-08-22T19:54:10.425Z,3.60
2018-08-22T19:56:40.745Z,3.50
2018-08-22T19:59:11.118Z,3.40
2018-08-22T20:01:41.755Z,3.10
2018-08-22T20:04:12.110Z,3.20
2018-08-22T20:06:42.708Z,3.23
2018-08-22T20:09:13.036Z,3.60
2018-08-22T20:11:43.390Z,3.60
2018-08-22T20:14:13.708Z,3.47
2018-08-22T20:16:44.522Z,3.30
2018-08-22T20:19:15.108Z,3.53
2018-08-22T20:21:45.465Z,3.20
2018-08-22T20:24:15.919Z,2.93
2018-08-22T20:26:52.734Z,3.23
2018-08-22T20:29:23.081Z,2.70
2018-08-22T20:31:53.444Z,2.73
2018-08-22T20:34:24.035Z,2.80
2018-08-22T20:36:54.399Z,2.53
2018-08-22T20:39:24.729Z,2.80
2018-08-22T20:42:02.144Z,3.10
2018-08-22T20:44:32.617Z,3.03
2018-08-22T20:47:03.033Z,3.13
2018-08-22T20:49:33.409Z,3.10
2018-08-22T20:52:04.033Z,3.17
2018-08-22T20:54:34.385Z,3.10
2018-08-22T20:57:04.738Z,3.17
2018-08-22T20:59:35.125Z,2.87
2018-08-22T21:02:06.696Z,3.40
2018-08-22T21:04:37.262Z,3.10
2018-08-22T21:07:07.864Z,2.90
2018-08-22T21:09:38.269Z,2.83
2018-08-22T21:12:08.653Z,2.70
2018-08-22T21:14:39.300Z,3.87
2018-08-22T21:17:09.820Z,3.33
2018-08-22T21:19:40.398Z,2.90
2018-08-22T21:22:26.078Z,3.10
2018-08-22T21:24:57.713Z,3.23
2018-08-22T21:27:28.307Z,3.00
2018-08-22T21:29:58.812Z,3.23
2018-08-22T21:32:29.175Z,3.13
2018-08-22T21:34:59.773Z,3.63
2018-08-22T21:37:30.987Z,3.40
2018-08-22T21:40:01.336Z,3.20
2018-08-22T21:42:32.847Z,3.20
2018-08-22T21:45:03.360Z,2.80
2018-08-22T21:47:33.729Z,3.23
2018-08-22T21:50:04.085Z,3.30
2018-08-22T21:53:02.548Z,3.47
2018-08-22T21:55:38.284Z,2.77
2018-08-22T21:58:09.713Z,3.03
2018-08-22T22:00:40.036Z,3.10
2018-08-22T22:03:22.314Z,2.80
2018-08-22T22:05:58.024Z,3.63
2018-08-22T22:08:28.367Z,3.60
2018-08-22T22:14:41.105Z,2.90
2018-08-22T22:17:11.500Z,3.03
2018-08-22T22:19:41.863Z,3.07
2018-08-22T22:22:12.224Z,3.40
2018-08-22T22:24:50.668Z,3.20
2018-08-22T22:27:21.078Z,3.37
2018-08-22T22:30:00.317Z,3.80
2018-08-22T22:32:31.038Z,3.40
2018-08-22T22:35:01.751Z,3.73
2018-08-22T22:37:32.361Z,3.47
2018-08-22T22:40:02.737Z,3.40
2018-08-22T22:42:33.108Z,3.70
2018-08-22T22:45:03.432Z,4.03
2018-08-22T22:47:34.743Z,3.63
2018-08-22T22:50:05.115Z,3.53
2018-08-22T22:52:41.428Z,3.80
2018-08-22T22:55:12.190Z,3.77
2018-08-22T22:57:43.912Z,3.30
2018-08-22T23:00:15.436Z,3.37
2018-08-22T23:02:46.652Z,3.57
2018-08-22T23:05:17.030Z,3.63
2018-08-22T23:07:47.404Z,3.50
2018-08-22T23:10:17.725Z,3.37
2018-08-22T23:12:48.352Z,3.20
2018-08-22T23:15:23.999Z,3.47
2018-08-22T23:17:59.334Z,3.53
2018-08-22T23:20:45.594Z,3.23
2018-08-22T23:23:34.883Z,3.30
2018-08-22T23:26:14.761Z,3.50
2018-08-22T23:28:45.548Z,2.93
2018-08-22T23:31:18.812Z,3.40
2018-08-22T23:33:49.472Z,3.27
2018-08-22T23:36:20.030Z,3.40
2018-08-22T23:38:50.349Z,3.60
2018-08-22T23:41:20.637Z,3.40
2018-08-22T23:43:52.375Z,3.70
2018-08-22T23:46:22.944Z,3.40
2018-08-22T23:48:56.549Z,3.43
2018-08-22T23:51:27.049Z,3.47
2018-08-22T23:53:59.834Z,3.13
2018-08-22T23:56:31.368Z,3.47
2018-08-22T23:59:01.717Z,3.70
